LNG Dream — C6VO5 — position and weather

sailwx.info

Track history (hours):
 
Tides and Currents Weather Stations Pressure Air Temp Water Temp Dewpoint Dewpoint Depression Visibility Wind Speed Wind Dir Waves Ship Positions

LNG Dream

Last reported at 2017-Jan-16 09:23 UTC. Time now 2017-Jan-21 08:37 UTC.
Position N 33°53' E 135°02'.

Length 289.6 m; beam 49 m.

Type: Ship (hazmat cat A). MMSI: 309065000.

Date/timePositionNaut miles runAvg speedWind from/ knotsBaromVisibWave heightAir tempDewpointWater temp
2017-Jan-16 09:23N 33°53' E 135°02'1214.7
2017-Jan-16 08:34N 34°04' E 134°57'1514.2
2017-Jan-16 07:30N 34°19' E 134°59'1414.6
2017-Jan-16 06:33N 34°28' E 135°11'1211.4
2017-Jan-16 05:33N 34°33' E 135°24'0 0.0
2017-Jan-15 05:33N 34°33' E 135°24'2 2.2
2017-Jan-15 04:33N 34°33' E 135°22'10 9.5
2017-Jan-15 03:33N 34°29' E 135°12'1514.6
2017-Jan-15 02:33N 34°18' E 134°59'1110.9
2017-Jan-15 01:33N 34°07' E 135°00'9 9.4
2017-Jan-15 00:33N 33°58' E 134°60'5 0.1
2017-Jan-13 05:30N 34°02' E 134°57'1313.7
2017-Jan-13 04:31N 34°15' E 134°58'1313.7
2017-Jan-13 03:33N 34°26' E 135°07'10 9.9
2017-Jan-13 02:33N 34°32' E 135°17'1212.1
2017-Jan-13 01:33N 34°24' E 135°06'1313.3
2017-Jan-13 00:33N 34°11' E 135°00'1010.3
2017-Jan-12 23:33N 34°01' E 134°60'  
Track history (hours):
 
Tides and Currents Weather Stations Pressure Air Temp Water Temp Dewpoint Dewpoint Depression Visibility Wind Speed Wind Dir Waves Ship Positions

LNG Dream

Last reported at 2017-Jan-16 09:23 UTC. Time now 2017-Jan-21 08:37 UTC.
Position N 33°53' E 135°02'.

Length 289.6 m; beam 49 m.

Type: Ship (hazmat cat A). MMSI: 309065000.

Date/timePositionNaut miles runAvg speedWind from/ knotsBaromVisibWave heightAir tempDewpointWater temp
2017-Jan-16 09:23N 33°53' E 135°02'1214.7
2017-Jan-16 08:34N 34°04' E 134°57'1514.2
2017-Jan-16 07:30N 34°19' E 134°59'1414.6
2017-Jan-16 06:33N 34°28' E 135°11'1211.4
2017-Jan-16 05:33N 34°33' E 135°24'0 0.0
2017-Jan-15 05:33N 34°33' E 135°24'2 2.2
2017-Jan-15 04:33N 34°33' E 135°22'10 9.5
2017-Jan-15 03:33N 34°29' E 135°12'1514.6
2017-Jan-15 02:33N 34°18' E 134°59'1110.9
2017-Jan-15 01:33N 34°07' E 135°00'9 9.4
2017-Jan-15 00:33N 33°58' E 134°60'5 0.1
2017-Jan-13 05:30N 34°02' E 134°57'1313.7
2017-Jan-13 04:31N 34°15' E 134°58'1313.7
2017-Jan-13 03:33N 34°26' E 135°07'10 9.9
2017-Jan-13 02:33N 34°32' E 135°17'1212.1
2017-Jan-13 01:33N 34°24' E 135°06'1313.3
2017-Jan-13 00:33N 34°11' E 135°00'1010.3
2017-Jan-12 23:33N 34°01' E 134°60'  

Dump ship's entire track history